Penn, Pennsylvania
Current Conditions -  °F | °C
As of 11:35 PM on Saturday 22 Nov 2014 (Local Time) from KLBE Reporting Station
Broken Clouds Broken Clouds  
Wind Chill: 43°   Ceiling: 10000
Heat Index: 46°   Visibility: 10mi
Dew Point: 32°   Wind: 7mph
Humidity: 57%   Direction: 220°SW
Pressure: 30.12"   Gusts: NA
Location:  40.33°N, 79.64°W
Report Text: KLBE 230435Z AUTO 22006KT 10SM BKN100 08/00 A3012 RMK AO2
Loading
Personal Weather Stations






























Interactive Weather Map New forecast layout! Learn more

10-Day Weather Forecast

Advertisements
Track Severe Weather on mobile